Adamsville, Utah
Current Conditions -  °F | °C
As of 10:52 PM on Sunday 23 Nov 2014 (Local Time) from KMLF Reporting Station
Clear Clear  
Wind Chill: 24°   Ceiling: Unl
Heat Index: 24°   Visibility: 10mi
Dew Point: 17°   Wind: 0mph
Humidity: 75%   Direction: NA
Pressure: 30.27"   Gusts: NA
Location:  38.2672°N, 112.728°W
Report Text: KMLF 240552Z AUTO 00000KT 10SM CLR M04/M08 A3027 RMK AO2 SLP265 T10441083 10033 21050 50003 TSNO
Loading
Personal Weather Stations






























Interactive Weather Map New forecast layout! Learn more

10-Day Weather Forecast

Advertisements
Track Severe Weather on mobile